sensor_id;sensor_type;location;lat;lon;timestamp;pressure;altitude;pressure_sealevel;temperature;humidity
15558;BME280;7880;50.110;9.372;2022-08-19T00:00:48;18.802502824697875;;;18.5;94.25230883874549
15558;BME280;7880;50.110;9.372;2022-08-19T00:05:44;18.7772889287211;;;18.5;94.77132111080802
15558;BME280;7880;50.110;9.372;2022-08-19T00:10:42;18.837802291288973;;;18.562;94.5765995445274
15558;BME280;7880;50.110;9.372;2022-08-19T00:15:46;18.908401267253794;;;18.625;94.20185114885558
15558;BME280;7880;50.110;9.372;2022-08-19T00:20:51;18.802502824697875;;;18.562;94.98238365300836
15558;BME280;7880;50.110;9.372;2022-08-19T00:25:56;18.762160594627495;;;18.5;95.11569261454758
15558;BME280;7880;50.110;9.372;2022-08-19T00:31:00;18.762160594627495;;;18.5;95.1476587930559
15558;BME280;7880;50.110;9.372;2022-08-19T00:36:07;18.84284507339471;;;18.562;94.93963726469458
15558;BME280;7880;50.110;9.372;2022-08-19T00:41:11;18.812588385125856;;;18.562;95.2181348857418
15558;BME280;7880;50.110;9.372;2022-08-19T00:46:22;18.731903934298316;;;18.5;95.92675780599771
15558;BME280;7880;50.110;9.372;2022-08-19T00:51:20;18.731903934298316;;;18.5;95.46868584847448
15558;BME280;7880;50.110;9.372;2022-08-19T00:56:26;18.691561736824223;;;18.5;95.85754876658768
15558;BME280;7880;50.110;9.372;2022-08-19T01:01:30;18.681476190366084;;;18.437;95.81894562925523
15558;BME280;7880;50.110;9.372;2022-08-19T01:06:36;18.641134016175055;;;18.437;96.27690654854659
15558;BME280;7880;50.110;9.372;2022-08-19T01:11:42;18.681476190366084;;;18.437;95.76568906860204
15558;BME280;7880;50.110;9.372;2022-08-19T01:16:45;18.767203372367657;;;18.5;95.3773970583301
15558;BME280;7880;50.110;9.372;2022-08-19T01:21:53;18.75207504002028;;;18.5;95.55654713663765
15558;BME280;7880;50.110;9.372;2022-08-19T01:26:55;18.681476190366084;;;18.437;95.84557358763733
15558;BME280;7880;50.110;9.372;2022-08-19T01:32:07;18.560449723672356;;;18.375;96.47384203788711
15558;BME280;7880;50.110;9.372;2022-08-19T01:37:13;18.631048475537682;;;18.375;96.06259515091129
15558;BME280;7880;50.110;9.372;2022-08-19T01:42:16;18.575578022841363;;;18.312;96.03398885825074
15558;BME280;7880;50.110;9.372;2022-08-19T01:47:15;18.550364192348205;;;18.375;96.00404820900181
15558;BME280;7880;50.110;9.372;2022-08-19T01:52:24;18.605834629037417;;;18.375;95.68654955213844
15558;BME280;7880;50.110;9.372;2022-08-19T01:57:03;18.55540695786476;;;18.312;95.72253943527187
15558;BME280;7880;50.110;9.372;2022-08-19T02:02:07;18.600791860610478;;;18.375;95.4143105317816
15558;BME280;7880;50.110;9.372;2022-08-19T02:07:19;18.53019313319237;;;18.312;95.62872619368869
15558;BME280;7880;50.110;9.372;2022-08-19T02:12:14;18.565492489770985;;;18.312;96.06460309078473
15558;BME280;7880;50.110;9.372;2022-08-19T02:17:18;18.661305100942265;;;18.437;95.1771924401461
15558;BME280;7880;50.110;9.372;2022-08-19T02:22:26;18.590706324629718;;;18.375;95.58339688231133
15558;BME280;7880;50.110;9.372;2022-08-19T02:27:27;18.600791860610478;;;18.375;95.40365993461377
15558;BME280;7880;50.110;9.372;2022-08-19T02:32:44;18.535235897544773;;;18.312;95.60808950930183
15558;BME280;7880;50.110;9.372;2022-08-19T02:38:40;18.469679983664538;;;18.25;96.44050321052214
15558;BME280;7880;50.110;9.372;2022-08-19T02:43:21;18.570535256160657;;;18.312;95.83100904922523
15558;BME280;7880;50.110;9.372;2022-08-19T02:48:24;18.474722744524477;;;18.25;96.13779825769839
15558;BME280;7880;50.110;9.372;2022-08-19T02:53:28;18.474722744524477;;;18.187;96.28150533709496
15558;BME280;7880;50.110;9.372;2022-08-19T02:58:31;18.4142096334137;;;18.187;96.63534672753192
15558;BME280;7880;50.110;9.372;2022-08-19T03:48:56;18.600791860610478;;;18.375;95.36638257419199
15558;BME280;7880;50.110;9.372;2022-08-19T03:54:07;18.45455170283094;;;18.312;96.95467639793685
15558;BME280;7880;50.110;9.372;2022-08-19T03:59:09;18.39908136218437;;;18.187;97.62286831267885
15558;BME280;7880;50.110;9.372;2022-08-19T04:04:06;18.388995849486673;;;18.187;97.66937476161114
15558;BME280;7880;50.110;9.372;2022-08-19T04:09:11;18.4142096334137;;;18.125;97.46000912417367
15558;BME280;7880;50.110;9.372;2022-08-19T04:14:18;18.32848279774771;;;18.125;97.96962442907437
15558;BME280;7880;50.110;9.372;2022-08-19T04:19:20;18.32848279774771;;;18.125;98.0547094273427
15558;BME280;7880;50.110;9.372;2022-08-19T04:24:27;18.338568303460487;;;18.062;98.15712320864054
15558;BME280;7880;50.110;9.372;2022-08-19T04:29:27;18.358739318378504;;;18.187;98.13328967793417
15558;BME280;7880;50.110;9.372;2022-08-19T04:34:30;18.39908136218437;;;18.187;98.47384540070726
15558;BME280;7880;50.110;9.372;2022-08-19T04:46:30;18.358739318378504;;;18.125;99.63261991488089
15558;BME280;7880;50.110;9.372;2022-08-19T04:51:34;18.348653810337417;;;18.125;100.0
15558;BME280;7880;50.110;9.372;2022-08-19T04:56:39;18.36882482758374;;;18.125;99.74565859579693
15558;BME280;7880;50.110;9.372;2022-08-19T05:01:50;18.28309803644661;;;18.062;100.0
15558;BME280;7880;50.110;9.372;2022-08-19T05:06:48;18.358739318378504;;;18.125;100.0
15558;BME280;7880;50.110;9.372;2022-08-19T05:12:00;18.39908136218437;;;18.125;100.0
15558;BME280;7880;50.110;9.372;2022-08-19T05:16:55;18.42933790726238;;;18.187;100.0
15558;BME280;7880;50.110;9.372;2022-08-19T05:23:02;18.54027866218821;;;18.312;100.0
15558;BME280;7880;50.110;9.372;2022-08-19T05:27:41;18.489851028850534;;;18.312;100.0
15558;BME280;7880;50.110;9.372;2022-08-19T05:32:45;18.45959446281777;;;18.312;100.0
15558;BME280;7880;50.110;9.372;2022-08-19T05:37:48;18.58062078981311;;;18.375;100.0
15558;BME280;7880;50.110;9.372;2022-08-19T05:42:54;18.620962936064462;;;18.437;100.0
15558;BME280;7880;50.110;9.372;2022-08-19T05:47:58;18.631048475537682;;;18.437;100.0
15558;BME280;7880;50.110;9.372;2022-08-19T05:53:02;18.65121955797658;;;18.5;99.99265514647824
15558;BME280;7880;50.110;9.372;2022-08-19T05:58:03;18.66634787286166;;;18.5;100.0
15558;BME280;7880;50.110;9.372;2022-08-19T06:03:13;18.77224615039886;;;18.562;99.56807407698139
15558;BME280;7880;50.110;9.372;2022-08-19T06:08:14;18.79241726543405;;;18.625;100.0
15558;BME280;7880;50.110;9.372;2022-08-19T06:13:15;18.79241726543405;;;18.625;100.0
15558;BME280;7880;50.110;9.372;2022-08-19T06:18:19;18.807545604766347;;;18.625;100.0
15558;BME280;7880;50.110;9.372;2022-08-19T06:23:24;18.87814455628395;;;18.687;100.0
15558;BME280;7880;50.110;9.372;2022-08-19T06:28:27;18.93361520106555;;;18.75;100.0
15558;BME280;7880;50.110;9.372;2022-08-19T06:33:30;19.069770569377578;;;18.875;100.0
15558;BME280;7880;50.110;9.372;2022-08-19T06:38:36;19.115155739296462;;;18.937;100.0
15558;BME280;7880;50.110;9.372;2022-08-19T06:43:40;19.12524133581319;;;19.0;100.0
15558;BME280;7880;50.110;9.372;2022-08-19T06:48:49;19.14036973277107;;;18.937;100.0
15558;BME280;7880;50.110;9.372;2022-08-19T06:53:56;19.155498132348292;;;18.937;100.0
15558;BME280;7880;50.110;9.372;2022-08-19T06:59:09;19.170626534544862;;;19.0;100.0
15558;BME280;7880;50.110;9.372;2022-08-19T07:03:58;19.210968953208067;;;19.0;100.0
15558;BME280;7880;50.110;9.372;2022-08-19T07:09:01;19.195840544026577;;;19.062;100.0
15558;BME280;7880;50.110;9.372;2022-08-19T07:14:04;19.185754939360777;;;19.0;100.0
15558;BME280;7880;50.110;9.372;2022-08-19T07:19:09;19.2563541964686;;;19.062;100.0
15558;BME280;7880;50.110;9.372;2022-08-19T07:24:15;19.28661103840568;;;19.125;100.0
15558;BME280;7880;50.110;9.372;2022-08-19T07:29:24;19.2563541964686;;;19.125;100.0
15558;BME280;7880;50.110;9.372;2022-08-19T07:34:22;19.185754939360777;;;19.062;100.0
15558;BME280;7880;50.110;9.372;2022-08-19T07:39:28;19.2260973650089;;;19.0;100.0
15558;BME280;7880;50.110;9.372;2022-08-19T07:44:41;19.236182974331314;;;19.062;100.0
15558;BME280;7880;50.110;9.372;2022-08-19T07:49:33;19.17566933585913;;;19.0;99.94915389410247
15558;BME280;7880;50.110;9.372;2022-08-19T07:54:40;19.29165384641383;;;19.062;99.24094115633717
15558;BME280;7880;50.110;9.372;2022-08-19T08:00:01;19.31686789082014;;;19.125;98.21068324571958
15558;BME280;7880;50.110;9.372;2022-08-19T08:11:43;19.362253189086914;;;19.25;95.6041409414899
15558;BME280;7880;50.110;9.372;2022-08-19T08:16:45;19.422766956780105;;;19.312;94.33139706814583
15558;BME280;7880;50.110;9.372;2022-08-19T08:21:48;19.690036598738516;;;19.5;93.50021269072879
15558;BME280;7880;50.110;9.372;2022-08-19T08:26:54;19.826193145755678;;;19.687;91.98877854907941
15558;BME280;7880;50.110;9.372;2022-08-19T08:31:55;20.01277838810929;;;19.875;91.67458532496745
15558;BME280;7880;50.110;9.372;2022-08-19T08:36:57;19.95226421179832;;;19.812;91.15918864605223
15558;BME280;7880;50.110;9.372;2022-08-19T08:42:08;19.997649840102532;;;19.875;90.22306814954071
15558;BME280;7880;50.110;9.372;2022-08-19T08:47:12;20.063206900382646;;;19.937;88.87127391749166
15558;BME280;7880;50.110;9.372;2022-08-19T08:52:17;19.972435599245365;;;19.875;89.17127901851329
15558;BME280;7880;50.110;9.372;2022-08-19T08:57:20;20.027906938735395;;;19.875;88.80298295453058
15558;BME280;7880;50.110;9.372;2022-08-19T09:02:22;20.108592586312444;;;19.937;88.65160517451321
15558;BME280;7880;50.110;9.372;2022-08-19T09:07:36;20.18423544858233;;;20.0;88.11395909434808
15558;BME280;7880;50.110;9.372;2022-08-19T09:12:38;20.244749785546446;;;20.125;86.53476355847673
15558;BME280;7880;50.110;9.372;2022-08-19T09:17:34;20.53219345845282;;;20.312;86.79681730370346
15558;BME280;7880;50.110;9.372;2022-08-19T09:22:47;20.703651538142005;;;20.562;83.77789223398202
15558;BME280;7880;50.110;9.372;2022-08-19T09:27:42;20.628008226217936;;;20.562;82.52971418254516
15558;BME280;7880;50.110;9.372;2022-08-19T09:32:45;20.63305111164227;;;20.5;83.19074781424513
15558;BME280;7880;50.110;9.372;2022-08-19T09:37:53;20.617922456242376;;;20.5;82.24405390620474
15558;BME280;7880;50.110;9.372;2022-08-19T09:42:53;20.64817976966151;;;20.5;82.88082522179904
15558;BME280;7880;50.110;9.372;2022-08-19T09:48:00;20.60279380346183;;;20.5;82.57014673765185
15558;BME280;7880;50.110;9.372;2022-08-19T09:53:09;20.64817976966151;;;20.5;82.19872791490208
15558;BME280;7880;50.110;9.372;2022-08-19T09:58:09;20.900324455607915;;;20.75;80.7885444103189
15558;BME280;7880;50.110;9.372;2022-08-19T10:03:12;21.021354163304203;;;20.875;79.80508193709575
15558;BME280;7880;50.110;9.372;2022-08-19T10:08:19;21.142384038638557;;;21.0;78.83154547547068
15558;BME280;7880;50.110;9.372;2022-08-19T10:13:25;21.096997815743087;;;20.937;78.76279198689768
15558;BME280;7880;50.110;9.372;2022-08-19T10:18:24;21.243242396140705;;;21.125;77.63994308417966
15558;BME280;7880;50.110;9.372;2022-08-19T10:23:31;21.384444292221453;;;21.25;75.86871911458542
15558;BME280;7880;50.110;9.372;2022-08-19T10:28:48;21.757621830241987;;;21.625;73.83348480225561
15558;BME280;7880;50.110;9.372;2022-08-19T10:33:38;21.994640823849476;;;21.937;69.96136235182293
15558;BME280;7880;50.110;9.372;2022-08-19T10:38:41;22.201402598625283;;;22.125;71.4257025572762
15558;BME280;7880;50.110;9.372;2022-08-19T10:43:53;22.367820967826994;;;22.25;70.61575262246117
15558;BME280;7880;50.110;9.372;2022-08-19T10:48:50;22.25183237400488;;;22.25;68.67553223317213
15558;BME280;7880;50.110;9.372;2022-08-19T10:53:55;22.473723731428617;;;22.375;65.95484054374569
15558;BME280;7880;50.110;9.372;2022-08-19T10:59:07;22.584669621434294;;;22.5;68.64414156020246
15558;BME280;7880;50.110;9.372;2022-08-19T11:04:09;22.625013616360956;;;22.562;67.89380618051538
15558;BME280;7880;50.110;9.372;2022-08-19T11:09:09;22.685529643675544;;;22.562;68.21213435309068
15558;BME280;7880;50.110;9.372;2022-08-19T11:14:16;22.61492761588306;;;22.5;68.7003777430706
15558;BME280;7880;50.110;9.372;2022-08-19T11:19:19;22.988110408891224;;;22.75;68.43308223319977
15558;BME280;7880;50.110;9.372;2022-08-19T11:24:25;22.87716400665813;;;22.75;67.40091066126857
15558;BME280;7880;50.110;9.372;2022-08-19T11:29:28;22.978024366503814;;;22.812;67.19597010826527
15558;BME280;7880;50.110;9.372;2022-08-19T11:34:31;23.159573307592655;;;23.062;65.45463210330793
15558;BME280;7880;50.110;9.372;2022-08-19T11:39:36;23.361294795625145;;;23.187;64.54343084838543
15558;BME280;7880;50.110;9.372;2022-08-19T11:44:51;23.507543165632523;;;23.437;64.86177343855874
15558;BME280;7880;50.110;9.372;2022-08-19T11:49:42;23.679007083550097;;;23.625;62.58250613567005
15558;BME280;7880;50.110;9.372;2022-08-19T11:54:53;23.668920961418188;;;23.625;62.571080096852576
15558;BME280;7880;50.110;9.372;2022-08-19T11:59:50;24.132883784384468;;;23.875;61.5940496079754
15558;BME280;7880;50.110;9.372;2022-08-19T12:04:52;23.820212915632872;;;23.812;60.17319316258593
15558;BME280;7880;50.110;9.372;2022-08-19T12:09:57;23.905945139291;;;23.812;59.86145249127296
15558;BME280;7880;50.110;9.372;2022-08-19T12:15:07;24.28921963829198;;;24.125;58.02571386117423
15558;BME280;7880;50.110;9.372;2022-08-19T12:20:09;24.258961064094912;;;24.312;54.77201654930942
15558;BME280;7880;50.110;9.372;2022-08-19T12:25:11;24.51111616921262;;;24.437;53.961698533761414
15558;BME280;7880;50.110;9.372;2022-08-19T12:30:14;24.51615927873645;;;24.5;53.53018282780534
15558;BME280;7880;50.110;9.372;2022-08-19T12:35:20;24.62206464596675;;;24.562;52.6043788771194
15558;BME280;7880;50.110;9.372;2022-08-19T12:40:23;24.54641794199124;;;24.562;52.61839658319715
15558;BME280;7880;50.110;9.372;2022-08-19T12:45:26;24.62710776189342;;;24.625;52.353017333344944
15558;BME280;7880;50.110;9.372;2022-08-19T12:50:31;24.556504165404476;;;24.5;51.37753715126323
15558;BME280;7880;50.110;9.372;2022-08-19T12:55:36;24.460685089981418;;;24.437;51.45679136955266
15558;BME280;7880;50.110;9.372;2022-08-19T13:00:39;24.51615927873645;;;24.437;51.955961214670204
15558;BME280;7880;50.110;9.372;2022-08-19T13:05:43;24.66745269978419;;;24.562;51.99879134256885
15558;BME280;7880;50.110;9.372;2022-08-19T13:10:46;24.652323345892363;;;24.625;52.2280225067732
15558;BME280;7880;50.110;9.372;2022-08-19T13:15:51;24.52120238855132;;;24.437;52.96742699423592
15558;BME280;7880;50.110;9.372;2022-08-19T13:20:54;24.410254039854046;;;24.375;52.60863317936951
15558;BME280;7880;50.110;9.372;2022-08-19T13:26:04;24.203487038612366;;;24.125;52.20331285110318
15558;BME280;7880;50.110;9.372;2022-08-19T13:37:52;24.09758217866183;;;24.0;52.975538393770776
15558;BME280;7880;50.110;9.372;2022-08-19T13:42:55;24.011849766992963;;;23.937;53.605990135804255
15558;BME280;7880;50.110;9.372;2022-08-19T13:47:58;23.991677447059192;;;23.875;53.55072159999846
15558;BME280;7880;50.110;9.372;2022-08-19T13:53:02;24.072366754733956;;;23.937;53.19858014911929
15558;BME280;7880;50.110;9.372;2022-08-19T13:58:09;24.18835776504711;;;24.0;53.491847559881
15558;BME280;7880;50.110;9.372;2022-08-19T14:03:36;24.390081627952167;;;24.187;52.93586344686551
15558;BME280;7880;50.110;9.372;2022-08-19T14:08:42;24.59180595651851;;;24.437;52.88770868344622
15558;BME280;7880;50.110;9.372;2022-08-19T14:13:46;24.788487625215204;;;24.687;52.15560502808421
15558;BME280;7880;50.110;9.372;2022-08-19T14:18:53;24.83387576547102;;;24.687;52.23357595867744
15558;BME280;7880;50.110;9.372;2022-08-19T14:23:54;25.186895438848296;;;25.0;51.10533340452205
15558;BME280;7880;50.110;9.372;2022-08-19T14:29:01;25.096118815202498;;;25.062;50.74685546270879
15558;BME280;7880;50.110;9.372;2022-08-19T14:34:04;24.80361700268113;;;24.75;51.220477971803476
15558;BME280;7880;50.110;9.372;2022-08-19T14:39:26;24.82378951004357;;;24.75;51.210104389986384
15558;BME280;7880;50.110;9.372;2022-08-19T14:44:34;24.818746382766403;;;24.625;51.899392148720665
15558;BME280;7880;50.110;9.372;2022-08-19T14:49:16;24.874220798822353;;;24.75;50.88313986715886
15558;BME280;7880;50.110;9.372;2022-08-19T14:54:22;24.808660129085183;;;24.75;51.537986807117186
15558;BME280;7880;50.110;9.372;2022-08-19T14:59:28;24.80361700268113;;;24.687;51.877057226029024
15558;BME280;7880;50.110;9.372;2022-08-19T15:04:30;24.70275453571812;;;24.562;51.45285667909648
15558;BME280;7880;50.110;9.372;2022-08-19T15:09:35;24.70779765630141;;;24.562;51.35453230630448
15558;BME280;7880;50.110;9.372;2022-08-19T15:14:42;24.677538937167263;;;24.562;50.91601585323223
15558;BME280;7880;50.110;9.372;2022-08-19T15:19:53;24.632150878111133;;;24.5;50.892877134532995
15558;BME280;7880;50.110;9.372;2022-08-19T15:24:51;24.611978414986517;;;24.5;51.75650150425016
15558;BME280;7880;50.110;9.372;2022-08-19T15:29:54;24.48590062595904;;;24.375;51.85117733064901
15558;BME280;7880;50.110;9.372;2022-08-19T15:35:03;24.506073059979826;;;24.312;52.4914004582882
15558;BME280;7880;50.110;9.372;2022-08-19T15:40:13;24.435469561279753;;;24.312;52.937330048958245
15558;BME280;7880;50.110;9.372;2022-08-19T15:45:11;24.400167833321028;;;24.25;53.24217730204991
15558;BME280;7880;50.110;9.372;2022-08-19T15:50:12;24.319478222966428;;;24.187;54.359210246006114
15558;BME280;7880;50.110;9.372;2022-08-19T15:55:14;24.27409034988377;;;24.062;54.53778834421945
15558;BME280;7880;50.110;9.372;2022-08-19T16:07:18;24.17827158412547;;;24.0;54.397863740426
15558;BME280;7880;50.110;9.372;2022-08-19T16:12:20;24.117754523042823;;;23.937;54.41753772037444
15558;BME280;7880;50.110;9.372;2022-08-19T16:17:30;24.16818540436798;;;23.937;54.992495689419485
15558;BME280;7880;50.110;9.372;2022-08-19T16:22:32;24.067323670821498;;;23.875;57.356241201575415
15558;BME280;7880;50.110;9.372;2022-08-19T16:27:39;23.981591288838537;;;23.812;54.76188401089558
15558;BME280;7880;50.110;9.372;2022-08-19T16:32:44;23.931160515197554;;;23.75;55.03280935874561
15558;BME280;7880;50.110;9.372;2022-08-19T16:37:45;23.86055748099461;;;23.687;55.45559262295064
15558;BME280;7880;50.110;9.372;2022-08-19T16:42:51;23.825255985284457;;;23.687;56.043140906259914
15558;BME280;7880;50.110;9.372;2022-08-19T16:47:57;23.739523840788753;;;23.562;57.79459202320192
15558;BME280;7880;50.110;9.372;2022-08-19T16:52:59;23.704222393973033;;;23.5;57.30815313688536
15558;BME280;7880;50.110;9.372;2022-08-19T16:58:08;23.689093206846156;;;23.437;58.369815694705245
15558;BME280;7880;50.110;9.372;2022-08-19T17:03:10;23.55797369480133;;;23.375;59.87738588804356
15558;BME280;7880;50.110;9.372;2022-08-19T17:08:21;23.492414012557127;;;23.25;62.82251544143497
15558;BME280;7880;50.110;9.372;2022-08-19T17:13:20;23.356251752749085;;;23.125;63.22813224884853
15558;BME280;7880;50.110;9.372;2022-08-19T17:18:29;23.245304883108474;;;22.937;63.67833457173166
15558;BME280;7880;50.110;9.372;2022-08-19T17:23:30;23.139401184400775;;;22.812;65.34482869072315
15558;BME280;7880;50.110;9.372;2022-08-19T17:28:34;23.008282497158508;;;22.687;66.44386802822692
15558;BME280;7880;50.110;9.372;2022-08-19T17:33:40;22.922551154182294;;;22.625;67.18695092898248
15558;BME280;7880;50.110;9.372;2022-08-19T17:38:53;22.761174736754036;;;22.437;67.7077334445189
15558;BME280;7880;50.110;9.372;2022-08-19T17:43:59;22.68048663979862;;;22.312;68.21179529942661
15558;BME280;7880;50.110;9.372;2022-08-19T17:49:04;22.544325645134087;;;22.187;69.12882133820983
15558;BME280;7880;50.110;9.372;2022-08-19T17:54:11;22.55441163746291;;;22.187;68.33332489843288
15558;BME280;7880;50.110;9.372;2022-08-19T17:59:14;22.337563058943488;;;22.0;69.23897164867994
15558;BME280;7880;50.110;9.372;2022-08-19T18:04:19;22.357734997035003;;;21.937;69.05632789483933
15558;BME280;7880;50.110;9.372;2022-08-19T18:09:28;22.30226217848831;;;21.875;69.34475716932832
15558;BME280;7880;50.110;9.372;2022-08-19T18:14:32;22.266961312294008;;;21.875;70.01869539684476
15558;BME280;7880;50.110;9.372;2022-08-19T18:19:38;22.150972852349515;;;21.812;69.33416826939025
15558;BME280;7880;50.110;9.372;2022-08-19T18:24:41;22.0299415800313;;;21.5;70.58573956146786
15558;BME280;7880;50.110;9.372;2022-08-19T18:29:47;21.83830907503725;;;21.437;71.37155332046433
15558;BME280;7880;50.110;9.372;2022-08-19T18:34:52;21.818137256853515;;;21.312;71.72662969416817
15558;BME280;7880;50.110;9.372;2022-08-19T18:54:02;21.248285317071712;;;20.75;73.75480383635688
15558;BME280;7880;50.110;9.372;2022-08-19T18:59:07;21.17264153366559;;;20.625;74.28242697028502
15558;BME280;7880;50.110;9.372;2022-08-19T19:04:13;20.991096720664064;;;20.437;73.71795008787353
15558;BME280;7880;50.110;9.372;2022-08-19T19:09:19;20.97596800327301;;;20.437;73.86223405514104
15558;BME280;7880;50.110;9.372;2022-08-19T19:14:06;20.920496061915763;;;20.437;75.0914099024893
15558;BME280;7880;50.110;9.372;2022-08-19T19:18:57;20.663308430300095;;;20.187;76.3831180957186
15558;BME280;7880;50.110;9.372;2022-08-19T19:24:03;20.567493623826884;;;20.125;76.62766119383457
15558;BME280;7880;50.110;9.372;2022-08-19T19:29:09;20.60783668743097;;;20.062;75.60346406758684
15558;BME280;7880;50.110;9.372;2022-08-19T19:34:17;20.471678922418505;;;19.875;76.73224686556146
15558;BME280;7880;50.110;9.372;2022-08-19T19:39:19;20.50697906334535;;;19.812;76.40185200883722
15558;BME280;7880;50.110;9.372;2022-08-19T19:44:23;20.396035811310867;;;19.875;76.2201387302264
15558;BME280;7880;50.110;9.372;2022-08-19T19:49:31;20.50697906334535;;;19.875;76.2243396939004
15558;BME280;7880;50.110;9.372;2022-08-19T19:54:45;20.375864326074954;;;19.875;76.09470652952916
15558;BME280;7880;50.110;9.372;2022-08-19T19:59:44;20.385950068110834;;;19.875;76.23540104698561
15558;BME280;7880;50.110;9.372;2022-08-19T20:04:44;20.335521369572962;;;19.812;77.19880019611978
15558;BME280;7880;50.110;9.372;2022-08-19T20:09:48;20.380907196947373;;;19.875;77.47161982906178
15558;BME280;7880;50.110;9.372;2022-08-19T20:20:09;20.15397829581634;;;19.75;76.36584251479783
15558;BME280;7880;50.110;9.372;2022-08-19T20:25:06;20.254835512448334;;;19.75;76.34234279116264
15558;BME280;7880;50.110;9.372;2022-08-19T20:30:13;20.209449750557543;;;19.812;76.95653181687133
15558;BME280;7880;50.110;9.372;2022-08-19T20:35:18;20.18423544858233;;;19.812;76.88981852455011
15558;BME280;7880;50.110;9.372;2022-08-19T20:40:21;20.264921240514376;;;19.812;76.28407910383345
15558;BME280;7880;50.110;9.372;2022-08-19T20:45:27;20.209449750557543;;;19.75;76.86516392080877
15558;BME280;7880;50.110;9.372;2022-08-19T20:50:30;20.305264164420077;;;19.875;77.57774299230152
15558;BME280;7880;50.110;9.372;2022-08-19T20:55:34;19.942178519821027;;;19.687;78.8821762654878
15558;BME280;7880;50.110;9.372;2022-08-19T21:00:38;20.118678297498263;;;19.687;78.16270255732917
15558;BME280;7880;50.110;9.372;2022-08-19T21:05:52;20.209449750557543;;;19.812;78.41807837718548
15558;BME280;7880;50.110;9.372;2022-08-19T21:10:49;20.063206900382646;;;19.75;79.22627888134622
15558;BME280;7880;50.110;9.372;2022-08-19T21:16:12;20.18423544858233;;;19.812;79.18386063761291
15558;BME280;7880;50.110;9.372;2022-08-19T21:21:03;20.209449750557543;;;19.75;79.01433457479939
15558;BME280;7880;50.110;9.372;2022-08-19T21:26:03;20.148935438040645;;;19.75;79.06242687893507
15558;BME280;7880;50.110;9.372;2022-08-19T21:31:05;20.18423544858233;;;19.812;80.20412213162128
15558;BME280;7880;50.110;9.372;2022-08-19T21:36:11;20.083378313441063;;;19.687;80.7258650846845
15558;BME280;7880;50.110;9.372;2022-08-19T21:41:13;20.128764009848236;;;19.75;82.14159198821213
15558;BME280;7880;50.110;9.372;2022-08-19T21:46:16;20.113635441759833;;;19.75;84.59098610326429
15558;BME280;7880;50.110;9.372;2022-08-19T21:51:20;20.027906938735395;;;19.625;86.2592286292904
15558;BME280;7880;50.110;9.372;2022-08-19T21:56:24;20.01277838810929;;;19.562;86.02721432627821
15558;BME280;7880;50.110;9.372;2022-08-19T22:01:27;19.86653586709872;;;19.437;87.10373986015561
15558;BME280;7880;50.110;9.372;2022-08-19T22:06:34;19.740464924747357;;;19.312;86.30818686949495
15558;BME280;7880;50.110;9.372;2022-08-19T22:11:39;19.715250758104958;;;19.25;86.68015193128053
15558;BME280;7880;50.110;9.372;2022-08-19T22:16:50;19.659779617103048;;;19.187;87.14500119753744
15558;BME280;7880;50.110;9.372;2022-08-19T22:21:54;19.68499376773834;;;19.187;87.07288011916556
15558;BME280;7880;50.110;9.372;2022-08-19T22:26:50;19.442938221991064;;;19.062;88.43643147402614
15558;BME280;7880;50.110;9.372;2022-08-19T22:32:07;19.12524133581319;;;18.812;89.26556319222632
15558;BME280;7880;50.110;9.372;2022-08-19T22:36:57;19.24626858481788;;;18.75;88.41395781819708
15558;BME280;7880;50.110;9.372;2022-08-19T22:42:07;19.20592614985653;;;18.75;87.59697411283186
15558;BME280;7880;50.110;9.372;2022-08-19T22:47:06;19.145412532339105;;;18.625;87.88409860062242